createdAt,value
2019-01-29T00:00:35.844Z,4.70
2019-01-29T00:03:05.958Z,6.10
2019-01-29T00:05:34.326Z,4.43
2019-01-29T00:08:02.773Z,4.40
2019-01-29T00:10:31.147Z,4.43
2019-01-29T00:12:59.521Z,4.13
2019-01-29T00:15:27.896Z,4.20
2019-01-29T00:17:56.283Z,4.43
2019-01-29T00:20:24.650Z,5.10
2019-01-29T00:22:53.025Z,5.20
2019-01-29T00:25:21.400Z,3.90
2019-01-29T00:27:49.781Z,4.53
2019-01-29T00:30:18.484Z,4.77
2019-01-29T00:32:46.901Z,4.20
2019-01-29T00:35:15.301Z,5.17
2019-01-29T00:37:43.678Z,4.70
2019-01-29T00:40:14.280Z,4.63
2019-01-29T00:42:42.666Z,5.07
2019-01-29T00:45:16.057Z,4.50
2019-01-29T00:47:44.433Z,5.50
2019-01-29T00:50:15.042Z,6.10
2019-01-29T00:52:43.759Z,4.63
2019-01-29T00:55:14.471Z,4.40
2019-01-29T00:57:43.016Z,4.90
2019-01-29T01:00:20.004Z,5.93
2019-01-29T01:02:48.381Z,4.73
2019-01-29T01:05:17.190Z,5.83
2019-01-29T01:07:45.738Z,5.20
2019-01-29T01:10:16.641Z,5.17
2019-01-29T01:12:45.195Z,6.13
2019-01-29T01:15:14.402Z,5.90
2019-01-29T01:17:42.849Z,4.40
2019-01-29T01:20:14.003Z,6.10
2019-01-29T01:22:50.381Z,5.03
2019-01-29T01:25:13.751Z,6.10
2019-01-29T01:27:42.125Z,5.80
2019-01-29T01:30:50.416Z,5.70
2019-01-29T01:33:18.795Z,6.20
2019-01-29T01:36:06.345Z,6.73
2019-01-29T01:38:34.721Z,8.07
2019-01-29T01:41:03.104Z,6.70
2019-01-29T01:43:50.829Z,6.97
2019-01-29T01:49:06.647Z,9.00
2019-01-29T01:51:35.021Z,8.67
2019-01-29T01:54:22.695Z,7.83
2019-01-29T01:57:10.185Z,6.37
2019-01-29T01:59:57.923Z,6.70
2019-01-29T02:02:26.302Z,7.70
2019-01-29T02:05:13.802Z,5.77
2019-01-29T02:07:42.163Z,6.20
2019-01-29T02:10:50.450Z,5.57
2019-01-29T02:13:38.077Z,6.10
2019-01-29T02:18:53.889Z,6.00
2019-01-29T02:22:02.176Z,5.10
2019-01-29T02:24:49.676Z,6.20
2019-01-29T02:27:37.166Z,5.90
2019-01-29T02:30:24.976Z,6.10
2019-01-29T02:32:53.333Z,6.67
2019-01-29T02:38:16.066Z,6.03
2019-01-29T02:40:44.445Z,6.97
2019-01-29T02:43:12.815Z,8.00
2019-01-29T02:46:00.437Z,7.63
2019-01-29T02:48:48.057Z,7.77
2019-01-29T02:51:35.549Z,7.13
2019-01-29T02:56:58.973Z,5.60
2019-01-29T02:59:27.354Z,5.60
2019-01-29T03:04:24.408Z,6.60
2019-01-29T03:06:52.770Z,5.87
2019-01-29T03:09:21.150Z,6.13
2019-01-29T03:11:49.519Z,4.70
2019-01-29T03:14:17.881Z,5.10
2019-01-29T03:16:46.259Z,5.53
2019-01-29T03:19:14.619Z,5.83
2019-01-29T03:21:44.298Z,5.80
2019-01-29T03:24:12.646Z,4.77
2019-01-29T03:26:41.025Z,6.40
2019-01-29T03:29:09.736Z,5.23
2019-01-29T03:31:38.126Z,5.13
2019-01-29T03:34:06.479Z,4.87
2019-01-29T03:36:34.919Z,4.30
2019-01-29T03:39:04.461Z,4.60
2019-01-29T03:41:32.840Z,5.90
2019-01-29T03:44:01.210Z,4.70
2019-01-29T03:46:29.590Z,4.20
2019-01-29T03:48:57.975Z,4.47
2019-01-29T03:51:26.341Z,3.90
2019-01-29T03:53:54.702Z,4.50
2019-01-29T03:56:23.083Z,4.90
2019-01-29T03:58:51.449Z,5.70
2019-01-29T04:01:19.830Z,4.83
2019-01-29T04:03:48.206Z,5.43
2019-01-29T04:06:16.590Z,5.90
2019-01-29T04:08:44.958Z,6.67
2019-01-29T04:11:13.338Z,6.67
2019-01-29T04:13:41.737Z,7.67
2019-01-29T04:16:10.185Z,5.60
2019-01-29T04:18:38.562Z,5.63
2019-01-29T04:21:06.940Z,5.93
2019-01-29T04:23:35.305Z,5.80
2019-01-29T04:26:03.687Z,6.20
2019-01-29T04:28:32.052Z,6.37
2019-01-29T04:31:00.438Z,6.53
2019-01-29T04:33:28.816Z,6.33
2019-01-29T04:35:57.192Z,6.20
2019-01-29T04:38:25.579Z,6.20
2019-01-29T04:40:53.963Z,6.07
2019-01-29T04:43:22.435Z,5.90
2019-01-29T04:45:50.824Z,6.00
2019-01-29T04:48:19.197Z,5.73
2019-01-29T04:50:47.595Z,5.50
2019-01-29T04:53:15.967Z,6.80
2019-01-29T04:55:44.429Z,5.40
2019-01-29T04:58:12.828Z,6.00
2019-01-29T05:00:41.186Z,5.93
2019-01-29T05:03:09.563Z,6.60
2019-01-29T05:05:37.933Z,5.77
2019-01-29T05:08:06.314Z,5.10
2019-01-29T05:10:34.671Z,6.33
2019-01-29T05:13:03.055Z,7.43
2019-01-29T05:15:31.427Z,5.47
2019-01-29T05:17:59.805Z,6.60
2019-01-29T05:20:28.185Z,6.70
2019-01-29T05:22:56.557Z,6.07
2019-01-29T05:25:24.930Z,5.40
2019-01-29T05:27:53.301Z,5.83
2019-01-29T05:30:23.623Z,6.17
2019-01-29T05:32:52.009Z,6.90
2019-01-29T05:35:20.559Z,6.13
2019-01-29T05:37:48.938Z,5.43
2019-01-29T05:40:19.646Z,4.63
2019-01-29T05:42:48.058Z,6.20
2019-01-29T05:45:18.133Z,5.67
2019-01-29T05:47:46.581Z,6.40
2019-01-29T05:50:15.889Z,5.10
2019-01-29T05:52:44.441Z,4.50
2019-01-29T05:55:14.485Z,4.80
2019-01-29T05:57:43.022Z,5.47
2019-01-29T06:00:20.550Z,4.90
2019-01-29T06:02:49.205Z,5.43
2019-01-29T06:05:17.953Z,5.90
2019-01-29T06:07:46.335Z,5.40
2019-01-29T06:10:16.448Z,5.97
2019-01-29T06:12:45.918Z,5.10
2019-01-29T06:15:16.962Z,4.20
2019-01-29T06:17:45.356Z,5.23
2019-01-29T06:20:18.364Z,4.77
2019-01-29T06:22:46.254Z,4.50
2019-01-29T06:25:15.263Z,4.17
2019-01-29T06:27:43.719Z,4.70
2019-01-29T06:30:15.153Z,4.57
2019-01-29T06:32:43.519Z,5.60
2019-01-29T06:35:14.337Z,4.77
2019-01-29T06:37:42.714Z,4.83
2019-01-29T06:40:14.089Z,4.80
2019-01-29T06:42:42.468Z,4.80
2019-01-29T06:45:13.486Z,4.47
2019-01-29T06:47:42.031Z,5.23
2019-01-29T06:50:15.991Z,4.90
2019-01-29T06:52:44.631Z,5.80
2019-01-29T06:55:15.753Z,5.53
2019-01-29T06:57:44.118Z,6.10
2019-01-29T07:00:15.601Z,6.47
2019-01-29T07:02:44.101Z,5.67
2019-01-29T07:05:12.851Z,5.10
2019-01-29T07:07:41.221Z,5.80
2019-01-29T07:10:12.709Z,5.23
2019-01-29T07:12:41.160Z,6.03
2019-01-29T07:15:17.325Z,5.03
2019-01-29T07:17:47.072Z,5.40
2019-01-29T07:20:15.628Z,4.80
2019-01-29T07:22:43.994Z,5.80
2019-01-29T07:25:12.713Z,4.70
2019-01-29T07:27:41.083Z,4.87
2019-01-29T07:30:12.762Z,5.27
2019-01-29T07:32:41.129Z,4.20
2019-01-29T07:35:09.580Z,4.33
2019-01-29T07:37:37.948Z,4.43
2019-01-29T07:40:09.189Z,4.30
2019-01-29T07:42:37.808Z,4.47
2019-01-29T07:45:09.237Z,3.80
2019-01-29T07:47:37.885Z,3.70
2019-01-29T07:50:08.904Z,4.53
2019-01-29T07:52:37.271Z,3.73
2019-01-29T07:55:08.228Z,4.73
2019-01-29T07:57:36.592Z,4.63
2019-01-29T08:00:16.486Z,4.00
2019-01-29T08:02:44.923Z,4.50
2019-01-29T08:05:13.362Z,3.70
2019-01-29T08:07:41.729Z,4.70
2019-01-29T08:10:15.145Z,4.37
2019-01-29T08:12:43.515Z,4.30
2019-01-29T08:15:20.089Z,4.33
2019-01-29T08:17:48.455Z,4.50
2019-01-29T08:20:18.272Z,4.00
2019-01-29T08:22:46.634Z,4.23
2019-01-29T08:25:15.258Z,4.20
2019-01-29T08:27:43.715Z,4.60
2019-01-29T08:30:19.463Z,4.60
2019-01-29T08:32:47.831Z,3.97
2019-01-29T08:35:17.649Z,4.10
2019-01-29T08:37:46.032Z,4.53
2019-01-29T08:40:15.838Z,5.47
2019-01-29T08:42:44.200Z,5.57
2019-01-29T08:45:17.191Z,5.30
2019-01-29T08:47:45.730Z,5.70
2019-01-29T08:50:17.318Z,5.10
2019-01-29T08:52:45.685Z,4.23
2019-01-29T08:55:14.128Z,4.10
2019-01-29T08:57:42.509Z,4.70
2019-01-29T09:00:14.166Z,5.57
2019-01-29T09:02:42.531Z,5.37
2019-01-29T09:05:50.816Z,5.87
2019-01-29T09:08:19.187Z,6.30
2019-01-29T09:10:47.576Z,7.10
2019-01-29T09:13:16.008Z,5.10
2019-01-29T09:16:03.506Z,6.10
2019-01-29T09:18:31.881Z,5.57
2019-01-29T09:21:40.171Z,5.50
2019-01-29T09:24:08.541Z,5.30
2019-01-29T09:26:36.919Z,5.87
2019-01-29T09:29:06.830Z,5.57
2019-01-29T09:31:35.216Z,5.70
2019-01-29T09:34:03.589Z,6.60
2019-01-29T09:36:33.924Z,6.40
2019-01-29T09:39:02.066Z,7.20
2019-01-29T09:41:30.436Z,5.93
2019-01-29T09:43:58.807Z,6.90
2019-01-29T09:46:27.185Z,6.93
2019-01-29T09:48:55.553Z,7.33
2019-01-29T09:51:23.928Z,6.83
2019-01-29T09:53:52.362Z,7.30
2019-01-29T09:56:20.682Z,6.43
2019-01-29T09:58:49.058Z,7.63
2019-01-29T10:01:17.443Z,6.43
2019-01-29T10:03:45.805Z,6.70
2019-01-29T10:06:14.182Z,5.20
2019-01-29T10:08:42.550Z,5.00
2019-01-29T10:11:10.931Z,4.90
2019-01-29T10:13:39.304Z,5.13
2019-01-29T10:16:07.694Z,4.50
2019-01-29T10:18:36.059Z,4.50
2019-01-29T10:21:05.262Z,3.30
2019-01-29T10:23:33.633Z,2.60
2019-01-29T10:26:01.996Z,3.93
2019-01-29T10:28:30.370Z,3.43
2019-01-29T10:30:58.763Z,4.00
2019-01-29T10:33:27.146Z,2.77
2019-01-29T10:35:55.809Z,2.87
2019-01-29T10:38:24.185Z,3.67
2019-01-29T10:40:52.555Z,4.37
2019-01-29T10:43:20.939Z,4.00
2019-01-29T10:45:49.309Z,5.13
2019-01-29T10:48:17.695Z,3.53
2019-01-29T10:50:46.247Z,4.23
2019-01-29T10:53:14.611Z,4.73
2019-01-29T10:55:47.362Z,4.13
2019-01-29T10:58:13.163Z,4.83
2019-01-29T11:00:41.529Z,4.40
2019-01-29T11:03:10.546Z,3.93
2019-01-29T11:05:39.140Z,3.80
2019-01-29T11:08:07.760Z,4.77
2019-01-29T11:10:36.129Z,4.23
2019-01-29T11:13:07.332Z,4.63
2019-01-29T11:15:40.883Z,4.20
2019-01-29T11:18:11.897Z,3.77
2019-01-29T11:20:41.290Z,5.03
2019-01-29T11:23:09.669Z,3.50
2019-01-29T11:25:38.114Z,4.37
2019-01-29T11:28:06.494Z,4.93
2019-01-29T11:30:35.514Z,4.93
2019-01-29T11:33:04.346Z,4.10
2019-01-29T11:35:32.787Z,5.17
2019-01-29T11:38:01.164Z,4.23
2019-01-29T11:40:31.946Z,4.57
2019-01-29T11:43:00.695Z,5.30
2019-01-29T11:45:31.478Z,5.50
2019-01-29T11:47:59.874Z,5.40
2019-01-29T11:50:28.254Z,6.13
2019-01-29T11:52:56.678Z,5.73
2019-01-29T11:55:24.044Z,6.17
2019-01-29T11:57:52.374Z,5.97
2019-01-29T12:00:25.130Z,5.63
2019-01-29T12:02:53.769Z,5.23
2019-01-29T12:05:22.132Z,5.53
2019-01-29T12:07:50.496Z,5.97
2019-01-29T12:10:18.890Z,6.93
2019-01-29T12:12:47.445Z,6.13
2019-01-29T12:15:20.324Z,6.20
2019-01-29T12:17:48.690Z,6.10
2019-01-29T12:20:18.604Z,7.53
2019-01-29T12:22:47.140Z,7.87
2019-01-29T12:25:15.764Z,7.27
2019-01-29T12:27:44.132Z,8.00
2019-01-29T12:30:24.570Z,7.33
2019-01-29T12:32:53.187Z,7.20
2019-01-29T12:35:21.570Z,7.60
2019-01-29T12:37:49.945Z,8.10
2019-01-29T12:40:18.391Z,8.00
2019-01-29T12:42:46.765Z,7.70
2019-01-29T12:45:17.497Z,7.87
2019-01-29T12:47:46.010Z,8.50
2019-01-29T12:50:31.682Z,7.80
2019-01-29T12:53:10.483Z,8.07
2019-01-29T12:55:38.935Z,8.37
2019-01-29T12:58:07.944Z,6.93
2019-01-29T13:00:38.034Z,9.60
2019-01-29T13:03:06.579Z,9.27
2019-01-29T13:05:34.957Z,9.37
2019-01-29T13:08:03.518Z,8.07
2019-01-29T13:10:31.917Z,9.80
2019-01-29T13:13:00.381Z,10.40
2019-01-29T13:15:33.121Z,9.30
2019-01-29T13:18:02.029Z,9.40
2019-01-29T13:20:30.849Z,10.30
2019-01-29T13:22:59.218Z,11.43
2019-01-29T13:25:27.612Z,11.87
2019-01-29T13:27:55.982Z,13.23
2019-01-29T13:30:32.722Z,10.17
2019-01-29T13:33:01.271Z,10.33
2019-01-29T13:35:32.028Z,9.33
2019-01-29T13:38:00.403Z,10.73
2019-01-29T13:40:29.123Z,9.80
2019-01-29T13:42:57.498Z,10.93
2019-01-29T13:45:26.133Z,9.30
2019-01-29T13:47:54.456Z,9.10
2019-01-29T13:50:34.148Z,9.50
2019-01-29T13:53:02.513Z,9.40
2019-01-29T13:55:30.898Z,9.00
2019-01-29T13:57:59.378Z,8.17
2019-01-29T14:00:32.911Z,10.13
2019-01-29T14:03:01.920Z,7.73
2019-01-29T14:05:30.616Z,8.70
2019-01-29T14:07:58.983Z,7.00
2019-01-29T14:10:27.605Z,7.30
2019-01-29T14:12:57.018Z,7.40
2019-01-29T14:15:33.884Z,7.40
2019-01-29T14:18:02.425Z,6.30
2019-01-29T14:20:30.804Z,6.13
2019-01-29T14:22:59.177Z,7.80
2019-01-29T14:25:27.728Z,7.57
2019-01-29T14:27:56.098Z,7.87
2019-01-29T14:30:28.866Z,8.47
2019-01-29T14:32:57.406Z,7.67
2019-01-29T14:35:25.853Z,8.17
2019-01-29T14:38:12.534Z,7.83
2019-01-29T14:40:40.921Z,8.63
2019-01-29T14:43:14.959Z,7.80
2019-01-29T14:45:43.354Z,8.50
2019-01-29T14:48:11.719Z,7.90
2019-01-29T14:50:40.104Z,8.20
2019-01-29T14:53:08.472Z,8.20
2019-01-29T14:55:36.860Z,9.63
2019-01-29T14:58:05.906Z,9.43
2019-01-29T15:00:37.574Z,8.80
2019-01-29T15:03:06.048Z,9.63
2019-01-29T15:05:34.522Z,11.07
2019-01-29T15:08:02.888Z,9.60
2019-01-29T15:10:32.202Z,10.43
2019-01-29T15:13:00.859Z,10.30
2019-01-29T15:15:31.741Z,9.53
2019-01-29T15:18:01.762Z,9.43
2019-01-29T15:20:30.134Z,9.17
2019-01-29T15:22:58.585Z,9.93
2019-01-29T15:25:26.962Z,10.73
2019-01-29T15:28:14.687Z,10.20
2019-01-29T15:31:22.993Z,10.47
2019-01-29T15:33:51.373Z,9.70
2019-01-29T15:36:19.759Z,12.03
2019-01-29T15:38:48.137Z,11.50
2019-01-29T15:41:16.526Z,14.33
2019-01-29T15:44:04.019Z,11.90
2019-01-29T15:46:32.409Z,11.27
2019-01-29T15:49:00.788Z,10.00
2019-01-29T15:51:29.178Z,11.37
2019-01-29T15:53:57.548Z,10.27
2019-01-29T15:56:26.403Z,11.37
2019-01-29T15:58:56.023Z,10.70
2019-01-29T16:01:43.660Z,11.07
2019-01-29T16:04:31.344Z,10.87
2019-01-29T16:09:53.385Z,11.87
2019-01-29T16:12:41.014Z,13.80
2019-01-29T16:15:28.999Z,13.93
2019-01-29T16:18:16.500Z,12.37
2019-01-29T16:21:04.126Z,12.37
2019-01-29T16:23:51.628Z,11.67
2019-01-29T16:26:20.014Z,12.57
2019-01-29T16:29:07.502Z,13.90
2019-01-29T16:31:35.895Z,14.50
2019-01-29T16:37:12.341Z,15.37
2019-01-29T16:39:59.963Z,14.20
2019-01-29T16:45:02.168Z,16.77
2019-01-29T16:47:30.559Z,17.07
2019-01-29T16:49:58.931Z,17.20
2019-01-29T16:52:27.337Z,14.60
2019-01-29T16:55:14.962Z,13.73
2019-01-29T16:57:43.349Z,13.73
2019-01-29T17:00:51.642Z,15.93
2019-01-29T17:03:20.030Z,15.37
2019-01-29T17:06:07.524Z,14.13
2019-01-29T17:08:35.913Z,12.40
2019-01-29T17:16:46.382Z,15.17
2019-01-29T17:19:14.771Z,18.50
2019-01-29T17:22:02.396Z,15.40
2019-01-29T17:24:49.893Z,15.73
2019-01-29T17:30:45.692Z,15.97
2019-01-29T17:33:53.987Z,18.27
2019-01-29T17:36:22.360Z,18.00
2019-01-29T17:39:09.999Z,17.10
2019-01-29T17:41:38.369Z,17.27
2019-01-29T17:44:46.668Z,18.53
2019-01-29T17:47:34.296Z,16.17
2019-01-29T17:50:02.678Z,19.30
2019-01-29T17:52:31.059Z,18.80
2019-01-29T17:54:59.452Z,16.60
2019-01-29T17:57:27.834Z,17.87
2019-01-29T17:59:56.214Z,17.23
2019-01-29T18:02:24.617Z,18.20
2019-01-29T18:04:53.004Z,15.70
2019-01-29T18:07:21.422Z,16.00
2019-01-29T18:09:49.807Z,16.20
2019-01-29T18:12:18.288Z,18.10
2019-01-29T18:14:46.670Z,17.10
2019-01-29T18:17:15.044Z,17.60
2019-01-29T18:19:43.422Z,16.53
2019-01-29T18:22:11.796Z,19.77
2019-01-29T18:24:40.179Z,18.97
2019-01-29T18:27:08.563Z,21.37
2019-01-29T18:29:36.951Z,20.50
2019-01-29T18:32:05.435Z,20.80
2019-01-29T18:34:33.799Z,21.97
2019-01-29T18:37:02.277Z,22.03
2019-01-29T18:39:30.659Z,22.50
2019-01-29T18:41:59.067Z,20.53
2019-01-29T18:44:27.467Z,20.20
2019-01-29T18:46:55.848Z,20.17
2019-01-29T18:49:24.223Z,18.53
2019-01-29T18:51:52.595Z,19.97
2019-01-29T18:54:44.494Z,18.70
2019-01-29T18:57:32.223Z,20.10
2019-01-29T19:02:54.192Z,18.43
2019-01-29T19:06:02.494Z,18.37
2019-01-29T19:08:50.161Z,19.07
2019-01-29T19:11:37.789Z,18.97
2019-01-29T19:14:06.175Z,18.40
2019-01-29T19:16:53.663Z,16.90
2019-01-29T19:19:22.052Z,18.30
2019-01-29T19:21:50.428Z,19.37
2019-01-29T19:24:18.813Z,17.97
2019-01-29T19:26:47.245Z,18.30
2019-01-29T19:29:15.619Z,18.87
2019-01-29T19:31:44.007Z,19.27
2019-01-29T19:34:12.379Z,18.37
2019-01-29T19:36:40.770Z,20.87
2019-01-29T19:39:09.414Z,21.97
2019-01-29T19:41:37.865Z,22.40
2019-01-29T19:44:06.566Z,26.93
2019-01-29T19:46:35.156Z,27.57
2019-01-29T19:49:03.784Z,24.00
2019-01-29T19:51:32.402Z,23.00
2019-01-29T19:54:00.859Z,26.00
2019-01-29T19:56:29.239Z,23.80
2019-01-29T19:58:57.619Z,21.80
2019-01-29T20:01:26.007Z,21.37
2019-01-29T20:03:54.584Z,21.70
2019-01-29T20:06:23.196Z,18.67
2019-01-29T20:08:51.737Z,18.77
2019-01-29T20:11:20.208Z,16.40
2019-01-29T20:13:48.558Z,19.50
2019-01-29T20:16:16.943Z,20.00
2019-01-29T20:18:45.347Z,18.27
2019-01-29T20:21:13.733Z,18.77
2019-01-29T20:23:42.208Z,18.07
2019-01-29T20:26:10.671Z,18.33
2019-01-29T20:28:42.540Z,19.60
2019-01-29T20:31:09.181Z,20.57
2019-01-29T20:33:37.554Z,20.43
2019-01-29T20:36:05.947Z,19.33
2019-01-29T20:38:35.272Z,16.50
2019-01-29T20:41:03.791Z,17.07
2019-01-29T20:43:32.503Z,15.83
2019-01-29T20:46:00.884Z,14.30
2019-01-29T20:48:29.272Z,16.80
2019-01-29T20:50:57.657Z,18.30
2019-01-29T20:53:26.129Z,16.07
2019-01-29T20:55:54.515Z,14.80
2019-01-29T20:58:22.886Z,16.20
2019-01-29T21:00:51.267Z,16.97
2019-01-29T21:03:19.649Z,16.20
2019-01-29T21:05:48.335Z,17.70
2019-01-29T21:08:16.898Z,18.63
2019-01-29T21:10:45.271Z,18.47
2019-01-29T21:13:13.653Z,17.00
2019-01-29T21:15:42.090Z,17.47
2019-01-29T21:18:10.477Z,18.60
2019-01-29T21:20:38.850Z,14.17
2019-01-29T21:23:07.240Z,16.50
2019-01-29T21:25:35.607Z,15.47
2019-01-29T21:28:04.272Z,14.40
2019-01-29T21:30:34.989Z,13.47
2019-01-29T21:33:03.363Z,11.40
2019-01-29T21:35:31.840Z,12.87
2019-01-29T21:38:00.217Z,12.70
2019-01-29T21:40:28.677Z,13.10
2019-01-29T21:42:57.060Z,12.17
2019-01-29T21:45:25.435Z,13.20
2019-01-29T21:47:56.252Z,12.47
2019-01-29T21:50:26.818Z,13.50
2019-01-29T21:52:55.284Z,12.40
2019-01-29T21:55:23.645Z,11.23
2019-01-29T21:57:52.031Z,13.90
2019-01-29T22:00:35.226Z,12.27
2019-01-29T22:03:04.250Z,12.03
2019-01-29T22:05:32.635Z,12.07
2019-01-29T22:08:01.054Z,12.83
2019-01-29T22:10:29.452Z,12.23
2019-01-29T22:12:57.908Z,12.33
2019-01-29T22:15:26.456Z,11.83
2019-01-29T22:17:54.840Z,12.30
2019-01-29T22:20:24.451Z,12.30
2019-01-29T22:22:53.266Z,14.20
2019-01-29T22:25:23.022Z,12.90
2019-01-29T22:27:51.403Z,13.30
2019-01-29T22:30:27.997Z,13.73
2019-01-29T22:32:56.428Z,11.90
2019-01-29T22:35:24.936Z,12.80
2019-01-29T22:37:53.348Z,13.50
2019-01-29T22:40:24.312Z,12.20
2019-01-29T22:42:52.767Z,11.30
2019-01-29T22:45:21.208Z,11.23
2019-01-29T22:47:49.606Z,12.37
2019-01-29T22:50:26.719Z,10.83
2019-01-29T22:52:55.108Z,10.63
2019-01-29T22:55:23.574Z,10.37
2019-01-29T22:57:52.040Z,11.10
2019-01-29T23:00:51.935Z,10.80
2019-01-29T23:03:26.046Z,9.70
2019-01-29T23:06:02.785Z,11.60
2019-01-29T23:08:31.165Z,9.23
2019-01-29T23:11:01.111Z,10.53
2019-01-29T23:13:29.491Z,9.40
2019-01-29T23:15:57.869Z,10.93
2019-01-29T23:18:26.507Z,13.60
2019-01-29T23:20:54.881Z,10.50
2019-01-29T23:23:23.264Z,10.60
2019-01-29T23:25:51.633Z,10.70
2019-01-29T23:28:20.107Z,11.67
2019-01-29T23:30:48.487Z,11.67
2019-01-29T23:33:16.859Z,11.53
2019-01-29T23:35:45.248Z,11.10
2019-01-29T23:38:13.623Z,11.07
2019-01-29T23:40:42.017Z,10.90
2019-01-29T23:43:12.440Z,9.90
2019-01-29T23:45:40.501Z,9.20
2019-01-29T23:48:08.948Z,11.57
2019-01-29T23:50:37.351Z,11.00
2019-01-29T23:53:05.717Z,9.40
2019-01-29T23:55:34.101Z,10.27
2019-01-29T23:58:02.489Z,10.13
